Time;durP1;ratioP1;P1;durP2;ratioP2;P2;SDS_P1;SDS_P2;PMS_P1;PMS_P2;Temp;Humidity;BMP_temperature;BMP_pressure;BME280_temperature;BME280_humidity;BME280_pressure;Samples;Min_cycle;Max_cycle;Signal;HPM_P1;HPM_P2
2021/09/07 00:00:31;;;;;;;9.98;8.07;;;15.20;99.90;;;;;;6370545;22;20235;-94
2021/09/07 00:02:57;;;;;;;10.50;8.52;;;15.20;99.90;;;;;;6370510;22;20170;-94
2021/09/07 00:05:23;;;;;;;11.40;8.15;;;15.20;99.90;;;;;;6370593;22;20182;-93
2021/09/07 00:07:48;;;;;;;11.20;8.63;;;15.20;99.90;;;;;;6370629;22;20249;-93
2021/09/07 00:10:15;;;;;;;13.93;8.82;;;15.10;99.90;;;;;;6370506;22;20582;-95
2021/09/07 00:12:42;;;;;;;13.60;8.55;;;15.10;99.90;;;;;;6370649;22;20151;-94
2021/09/07 00:15:11;;;;;;;11.52;8.20;;;15.00;99.90;;;;;;6370281;22;20153;-93
2021/09/07 00:17:37;;;;;;;10.02;7.78;;;15.00;99.90;;;;;;6370318;22;20176;-93
2021/09/07 00:20:05;;;;;;;10.90;8.20;;;15.00;99.90;;;;;;6370267;22;20186;-94
2021/09/07 00:22:31;;;;;;;12.98;8.95;;;15.00;99.90;;;;;;6370339;22;20181;-94
2021/09/07 00:24:56;;;;;;;12.73;8.77;;;15.00;99.90;;;;;;6370643;22;20174;-93
2021/09/07 00:27:22;;;;;;;11.07;8.63;;;14.90;99.90;;;;;;6370283;22;20146;-94
2021/09/07 00:29:48;;;;;;;14.23;8.82;;;15.00;99.90;;;;;;6370461;22;20174;-94
2021/09/07 00:32:14;;;;;;;11.00;8.27;;;14.90;99.90;;;;;;6370166;22;20143;-95
2021/09/07 00:34:39;;;;;;;10.82;8.10;;;14.90;99.90;;;;;;6370451;22;20146;-93
2021/09/07 00:37:05;;;;;;;12.63;8.25;;;14.80;99.90;;;;;;6369995;22;20240;-94
2021/09/07 00:39:31;;;;;;;13.43;8.40;;;14.80;99.90;;;;;;6370379;22;20217;-93
2021/09/07 00:41:57;;;;;;;13.32;8.40;;;14.70;99.90;;;;;;6370433;22;20142;-94
2021/09/07 00:44:23;;;;;;;12.00;8.77;;;14.70;99.90;;;;;;6370374;22;20615;-93
2021/09/07 00:46:58;;;;;;;10.77;8.50;;;14.70;99.90;;;;;;6370485;22;20232;-94
2021/09/07 00:49:25;;;;;;;10.63;8.30;;;14.60;99.90;;;;;;6370177;22;20199;-94
2021/09/07 00:51:52;;;;;;;13.32;8.63;;;14.60;99.90;;;;;;6370322;22;20170;-94
2021/09/07 00:54:26;;;;;;;9.85;8.38;;;14.60;99.90;;;;;;6370425;22;20147;-94
2021/09/07 00:56:53;;;;;;;11.70;8.60;;;14.50;99.90;;;;;;6370468;22;20201;-94
2021/09/07 00:59:21;;;;;;;11.00;8.65;;;14.50;99.90;;;;;;6370576;22;20242;-94
2021/09/07 01:01:47;;;;;;;11.75;8.20;;;14.50;99.90;;;;;;6370338;22;20147;-94
2021/09/07 01:04:13;;;;;;;11.55;8.88;;;14.50;99.90;;;;;;6370102;22;20175;-93
2021/09/07 01:06:39;;;;;;;11.55;8.13;;;14.40;99.90;;;;;;6370293;22;20143;-93
2021/09/07 01:09:06;;;;;;;10.82;8.38;;;14.40;99.90;;;;;;6370314;22;20231;-94
2021/09/07 01:11:33;;;;;;;11.75;8.55;;;14.40;99.90;;;;;;6370163;22;20227;-94
2021/09/07 01:13:59;;;;;;;11.05;8.85;;;14.40;99.90;;;;;;6370283;22;20170;-94
2021/09/07 01:16:25;;;;;;;19.63;9.27;;;14.30;99.90;;;;;;6370046;22;20150;-94
2021/09/07 01:18:51;;;;;;;16.38;9.15;;;14.30;99.90;;;;;;6369979;22;20146;-94
2021/09/07 01:21:17;;;;;;;12.02;8.88;;;14.30;99.90;;;;;;6370102;22;20205;-94
2021/09/07 01:23:47;;;;;;;13.13;8.82;;;14.30;99.90;;;;;;6369746;22;20225;-93
2021/09/07 01:26:16;;;;;;;16.65;8.70;;;14.30;99.90;;;;;;6370237;22;20143;-93
2021/09/07 01:28:43;;;;;;;11.35;8.10;;;14.30;99.90;;;;;;6370265;22;20226;-95
2021/09/07 01:31:10;;;;;;;10.90;8.93;;;14.20;99.90;;;;;;6370063;22;20171;-93
2021/09/07 01:33:38;;;;;;;12.60;8.43;;;14.20;99.90;;;;;;6370222;22;20154;-95
2021/09/07 01:36:04;;;;;;;12.43;8.70;;;14.20;99.90;;;;;;6370052;22;20225;-94
2021/09/07 01:38:31;;;;;;;16.77;8.82;;;14.20;99.90;;;;;;6370316;22;20178;-93
2021/09/07 01:40:58;;;;;;;11.90;8.35;;;14.20;99.90;;;;;;6370080;22;20182;-93
2021/09/07 01:43:24;;;;;;;13.05;9.25;;;14.20;99.90;;;;;;6371178;22;20174;-94
2021/09/07 01:45:51;;;;;;;11.63;8.48;;;14.10;99.90;;;;;;6372133;22;20447;-94
2021/09/07 01:48:19;;;;;;;11.10;8.05;;;14.10;99.90;;;;;;6372085;22;20572;-94
2021/09/07 01:50:46;;;;;;;11.85;8.30;;;14.10;99.90;;;;;;6372166;22;20296;-94
2021/09/07 01:53:12;;;;;;;9.82;7.82;;;14.10;99.90;;;;;;6372290;22;20162;-94
2021/09/07 01:55:38;;;;;;;10.35;8.18;;;14.10;99.90;;;;;;6371697;22;20150;-94
2021/09/07 01:58:04;;;;;;;12.18;8.88;;;14.10;99.90;;;;;;6371953;22;20602;-93
2021/09/07 02:00:31;;;;;;;10.80;8.27;;;14.10;99.90;;;;;;6371518;22;20175;-94
2021/09/07 02:02:56;;;;;;;11.80;8.80;;;14.10;99.90;;;;;;6371588;22;20204;-94
2021/09/07 02:05:22;;;;;;;11.25;8.70;;;14.00;99.90;;;;;;6371900;22;20233;-94
2021/09/07 02:07:48;;;;;;;12.63;8.35;;;14.10;99.90;;;;;;6372070;22;20229;-94
2021/09/07 02:10:15;;;;;;;10.93;8.38;;;14.00;99.90;;;;;;6371690;22;20219;-94
2021/09/07 02:12:41;;;;;;;13.27;8.55;;;14.00;99.90;;;;;;6372466;22;20520;-93
2021/09/07 02:15:08;;;;;;;12.40;8.10;;;14.00;99.90;;;;;;6371759;22;20151;-93
2021/09/07 02:17:34;;;;;;;13.52;8.43;;;14.00;99.90;;;;;;6371918;22;20200;-94
2021/09/07 02:20:00;;;;;;;11.10;8.60;;;14.00;99.90;;;;;;6371813;22;20178;-94
2021/09/07 02:22:26;;;;;;;13.48;7.97;;;13.90;99.90;;;;;;6371671;22;20261;-94
2021/09/07 02:24:53;;;;;;;10.35;8.38;;;13.90;99.90;;;;;;6371841;22;20231;-93
2021/09/07 02:27:19;;;;;;;13.45;8.38;;;13.80;99.90;;;;;;6371947;22;20177;-95
2021/09/07 02:29:45;;;;;;;16.83;8.55;;;13.90;99.90;;;;;;6371573;22;20669;-95
2021/09/07 02:32:11;;;;;;;11.77;8.82;;;13.90;99.90;;;;;;6371811;22;20147;-94
2021/09/07 02:34:37;;;;;;;11.20;9.13;;;13.80;99.90;;;;;;6371744;22;20147;-93
2021/09/07 02:37:03;;;;;;;10.35;8.02;;;13.80;99.90;;;;;;6371295;22;20194;-93
2021/09/07 02:39:29;;;;;;;11.18;8.15;;;13.80;99.90;;;;;;6371373;22;20280;-94
2021/09/07 02:41:55;;;;;;;12.48;8.60;;;13.80;99.90;;;;;;6371504;22;20151;-93
2021/09/07 02:44:21;;;;;;;11.40;8.25;;;13.80;99.90;;;;;;6371010;22;20486;-94
2021/09/07 02:46:47;;;;;;;12.82;9.65;;;13.80;99.90;;;;;;6371062;22;20161;-94
2021/09/07 02:49:13;;;;;;;12.63;9.10;;;13.70;99.90;;;;;;6371325;22;20178;-94
2021/09/07 02:51:39;;;;;;;11.05;7.88;;;13.80;99.90;;;;;;6370622;22;20181;-93
2021/09/07 02:54:05;;;;;;;8.57;7.50;;;13.70;99.90;;;;;;6371361;22;20151;-94
2021/09/07 02:56:31;;;;;;;12.30;7.53;;;13.70;99.90;;;;;;6371335;22;20154;-94
2021/09/07 02:58:57;;;;;;;10.70;7.90;;;13.70;99.90;;;;;;6371184;22;20143;-94
2021/09/07 03:01:23;;;;;;;12.15;8.20;;;13.70;99.90;;;;;;6371117;22;20192;-94
2021/09/07 03:03:48;;;;;;;11.05;8.57;;;13.70;99.90;;;;;;6370994;22;20196;-93
2021/09/07 03:06:16;;;;;;;11.65;8.38;;;13.70;99.90;;;;;;6371260;22;20199;-94
2021/09/07 03:08:43;;;;;;;11.20;8.90;;;13.80;99.90;;;;;;6371253;22;20143;-94
2021/09/07 03:11:09;;;;;;;13.40;8.93;;;13.80;99.90;;;;;;6370921;22;20507;-94
2021/09/07 03:13:35;;;;;;;13.70;8.68;;;13.80;99.90;;;;;;6371078;22;20161;-93
2021/09/07 03:16:00;;;;;;;10.90;8.20;;;13.80;99.90;;;;;;6371553;22;20151;-94
2021/09/07 03:18:26;;;;;;;13.52;9.02;;;13.80;99.90;;;;;;6371189;22;20150;-93
2021/09/07 03:20:52;;;;;;;11.85;8.77;;;13.70;99.90;;;;;;6370998;22;20179;-94
2021/09/07 03:23:18;;;;;;;11.10;8.88;;;13.80;99.90;;;;;;6370914;22;20174;-93
2021/09/07 03:25:44;;;;;;;12.70;9.50;;;13.80;99.90;;;;;;6371158;22;20157;-94
2021/09/07 03:28:10;;;;;;;11.68;9.00;;;13.80;99.90;;;;;;6371137;22;20146;-93
2021/09/07 03:30:36;;;;;;;10.27;8.13;;;13.80;99.90;;;;;;6370869;22;20553;-93
2021/09/07 03:33:02;;;;;;;11.13;8.70;;;13.80;99.90;;;;;;6371191;22;20147;-94
2021/09/07 03:35:28;;;;;;;10.07;8.48;;;13.80;99.90;;;;;;6370722;22;20143;-93
2021/09/07 03:37:55;;;;;;;10.25;8.13;;;13.80;99.90;;;;;;6370878;22;20604;-95
2021/09/07 03:40:21;;;;;;;11.52;8.32;;;13.80;99.90;;;;;;6370614;22;20184;-95
2021/09/07 03:42:46;;;;;;;13.02;8.75;;;13.80;99.90;;;;;;6370675;22;20242;-94
2021/09/07 03:45:14;;;;;;;11.48;8.00;;;13.80;99.90;;;;;;6370865;22;20154;-93
2021/09/07 03:47:44;;;;;;;12.52;8.55;;;13.80;99.90;;;;;;6370974;22;20645;-93
2021/09/07 03:50:11;;;;;;;11.45;8.73;;;13.80;99.90;;;;;;6370825;22;20202;-93
2021/09/07 03:52:37;;;;;;;9.95;8.25;;;13.80;99.90;;;;;;6370663;22;20214;-93
2021/09/07 03:55:04;;;;;;;13.98;8.85;;;13.80;99.90;;;;;;6370412;22;20238;-93
2021/09/07 03:57:30;;;;;;;13.38;8.98;;;13.80;99.90;;;;;;6370611;22;20147;-93
2021/09/07 03:59:57;;;;;;;16.20;9.15;;;13.80;99.90;;;;;;6370603;22;20182;-94
2021/09/07 04:02:23;;;;;;;10.00;8.15;;;13.80;99.90;;;;;;6370631;22;20239;-94
2021/09/07 04:04:49;;;;;;;12.45;8.20;;;13.80;99.90;;;;;;6370741;22;20147;-93
2021/09/07 04:07:15;;;;;;;10.85;8.68;;;13.80;99.90;;;;;;6370169;22;20146;-93
2021/09/07 04:09:41;;;;;;;11.73;8.55;;;13.70;99.90;;;;;;6370494;22;20205;-94
2021/09/07 04:12:07;;;;;;;11.45;8.77;;;13.80;99.90;;;;;;6370668;22;20183;-93
2021/09/07 04:14:33;;;;;;;10.57;8.48;;;13.80;99.90;;;;;;6370583;22;20155;-93
2021/09/07 04:16:59;;;;;;;12.23;9.25;;;13.80;99.90;;;;;;6370574;22;20161;-94
2021/09/07 04:19:24;;;;;;;12.00;8.63;;;13.70;99.90;;;;;;6370496;22;20146;-93
2021/09/07 04:21:51;;;;;;;14.07;9.13;;;13.70;99.90;;;;;;6370498;22;20199;-93
2021/09/07 04:24:17;;;;;;;13.63;9.80;;;13.70;99.90;;;;;;6370067;22;20250;-93
2021/09/07 04:26:42;;;;;;;12.55;9.25;;;13.70;99.90;;;;;;6370311;22;20533;-94
2021/09/07 04:29:08;;;;;;;12.02;8.75;;;13.70;99.90;;;;;;6370169;22;20229;-94
2021/09/07 04:31:34;;;;;;;13.90;9.60;;;13.70;99.90;;;;;;6370169;22;20243;-93
2021/09/07 04:34:01;;;;;;;15.98;10.48;;;13.70;99.90;;;;;;6370362;22;20181;-92
2021/09/07 04:36:28;;;;;;;12.63;9.32;;;13.70;99.90;;;;;;6370100;22;20205;-93
2021/09/07 04:38:54;;;;;;;13.82;9.63;;;13.70;99.90;;;;;;6369977;22;20147;-95
2021/09/07 04:41:21;;;;;;;15.90;9.43;;;13.70;99.90;;;;;;6370282;22;20220;-93
2021/09/07 04:43:47;;;;;;;12.38;9.43;;;13.80;99.90;;;;;;6370190;22;20200;-92
2021/09/07 04:46:13;;;;;;;13.90;10.50;;;13.80;99.90;;;;;;6370429;22;20229;-93
2021/09/07 04:48:39;;;;;;;13.30;9.50;;;13.80;99.90;;;;;;6370232;22;20225;-93
2021/09/07 04:51:04;;;;;;;14.13;9.65;;;13.80;99.90;;;;;;6370132;22;20171;-94
2021/09/07 04:53:30;;;;;;;15.40;10.75;;;13.80;99.90;;;;;;6370016;22;20147;-93
2021/09/07 04:55:56;;;;;;;12.13;9.13;;;13.80;99.90;;;;;;6370117;22;20147;-93
2021/09/07 04:58:22;;;;;;;13.27;10.07;;;13.80;99.90;;;;;;6370173;22;20157;-94
2021/09/07 05:00:48;;;;;;;11.98;9.77;;;13.80;99.90;;;;;;6369982;22;20235;-94
2021/09/07 05:03:14;;;;;;;15.90;10.07;;;13.80;99.90;;;;;;6369535;22;20170;-93
2021/09/07 05:05:40;;;;;;;12.45;9.57;;;13.80;99.90;;;;;;6369891;22;20153;-94
2021/09/07 05:08:06;;;;;;;14.48;10.32;;;13.90;99.90;;;;;;6369823;22;20143;-93
2021/09/07 05:10:31;;;;;;;13.32;10.05;;;13.90;99.90;;;;;;6369981;22;20170;-94
2021/09/07 05:12:57;;;;;;;10.85;8.27;;;13.90;99.90;;;;;;6369988;22;20200;-93
2021/09/07 05:15:23;;;;;;;16.45;10.30;;;13.90;99.90;;;;;;6369969;22;20287;-92
2021/09/07 05:17:49;;;;;;;12.93;9.45;;;13.90;99.90;;;;;;6369663;22;20150;-92
2021/09/07 05:20:15;;;;;;;12.80;9.60;;;14.00;99.90;;;;;;6369783;22;20182;-93
2021/09/07 05:22:41;;;;;;;14.35;9.57;;;14.00;99.90;;;;;;6369878;22;20219;-93
2021/09/07 05:25:07;;;;;;;13.57;9.80;;;14.00;99.90;;;;;;6369954;22;20142;-94
2021/09/07 05:27:35;;;;;;;13.10;9.30;;;14.00;99.90;;;;;;6369909;22;20142;-94
2021/09/07 05:30:03;;;;;;;13.02;9.43;;;14.00;99.90;;;;;;6369657;22;20175;-94
2021/09/07 05:32:29;;;;;;;17.65;9.52;;;14.00;99.90;;;;;;6369400;22;20147;-94
2021/09/07 05:34:55;;;;;;;15.88;10.00;;;14.00;99.90;;;;;;6369854;22;20158;-94
2021/09/07 05:37:20;;;;;;;12.38;9.13;;;14.10;99.90;;;;;;6369566;22;20202;-93
2021/09/07 05:39:46;;;;;;;13.32;9.23;;;14.10;99.90;;;;;;6369613;22;20174;-94
2021/09/07 05:42:12;;;;;;;14.27;9.90;;;14.10;99.90;;;;;;6369910;22;20146;-93
2021/09/07 05:44:38;;;;;;;15.05;9.80;;;14.10;99.90;;;;;;6369935;22;20147;-94
2021/09/07 05:47:05;;;;;;;14.52;10.15;;;14.20;99.90;;;;;;6369850;22;20483;-92
2021/09/07 05:49:31;;;;;;;12.32;9.18;;;14.20;99.90;;;;;;6369505;22;20584;-94
2021/09/07 05:51:58;;;;;;;13.85;10.02;;;14.30;99.90;;;;;;6368893;22;20154;-95
2021/09/07 05:54:24;;;;;;;11.38;9.35;;;14.30;99.90;;;;;;6369133;22;20154;-96
2021/09/07 05:56:50;;;;;;;14.82;10.45;;;14.40;99.90;;;;;;6369153;22;20189;-94
2021/09/07 05:59:17;;;;;;;13.07;10.35;;;14.40;99.90;;;;;;6369449;22;20147;-94
2021/09/07 06:01:46;;;;;;;14.77;11.00;;;14.50;99.90;;;;;;6369697;22;20151;-94
2021/09/07 06:04:13;;;;;;;16.67;11.75;;;14.50;99.90;;;;;;6369611;22;20175;-94
2021/09/07 06:06:39;;;;;;;16.10;12.07;;;14.50;99.90;;;;;;6369675;22;20146;-95
2021/09/07 06:09:05;;;;;;;17.10;11.75;;;14.50;99.90;;;;;;6369967;22;20225;-95
2021/09/07 06:11:31;;;;;;;20.65;14.05;;;14.60;99.90;;;;;;6369574;22;20555;-94
2021/09/07 06:13:56;;;;;;;20.48;14.32;;;14.60;99.90;;;;;;6369433;22;20524;-94
2021/09/07 06:16:23;;;;;;;24.48;14.52;;;14.60;99.90;;;;;;6369626;22;20181;-94
2021/09/07 06:18:49;;;;;;;21.55;14.77;;;14.70;99.90;;;;;;6369772;22;20151;-95
2021/09/07 06:21:15;;;;;;;23.33;14.30;;;14.70;99.90;;;;;;6369488;22;20185;-94
2021/09/07 06:23:41;;;;;;;25.33;15.98;;;14.80;99.90;;;;;;6369405;22;20174;-95
2021/09/07 06:26:07;;;;;;;21.40;14.68;;;14.80;99.90;;;;;;6369748;22;20572;-94
2021/09/07 06:28:33;;;;;;;21.25;14.98;;;14.80;99.90;;;;;;6369870;22;20204;-93
2021/09/07 06:30:59;;;;;;;24.60;15.77;;;14.90;99.90;;;;;;6371085;22;20553;-93
2021/09/07 06:33:24;;;;;;;24.73;15.50;;;14.90;99.90;;;;;;6371678;22;20150;-93
2021/09/07 06:35:50;;;;;;;20.08;14.85;;;14.90;99.90;;;;;;6371185;22;20647;-93
2021/09/07 06:38:16;;;;;;;32.22;18.58;;;15.00;99.90;;;;;;6371387;22;20204;-95
2021/09/07 06:40:42;;;;;;;28.45;16.90;;;15.00;99.90;;;;;;6371283;22;20257;-94
2021/09/07 06:43:08;;;;;;;28.58;16.85;;;15.00;99.90;;;;;;6371341;22;20170;-95
2021/09/07 06:45:34;;;;;;;26.92;18.50;;;15.10;99.90;;;;;;6371071;22;20483;-94
2021/09/07 06:47:59;;;;;;;33.85;21.08;;;15.10;99.90;;;;;;6370915;22;20147;-94
2021/09/07 06:50:25;;;;;;;41.03;21.15;;;15.20;99.90;;;;;;6370960;22;20249;-92
2021/09/07 06:52:51;;;;;;;34.47;20.15;;;15.30;99.90;;;;;;6371163;22;20225;-93
2021/09/07 06:55:17;;;;;;;33.65;22.17;;;15.30;99.90;;;;;;6371443;22;20147;-94
2021/09/07 06:57:43;;;;;;;32.88;20.45;;;15.40;99.90;;;;;;6371026;22;20208;-94
2021/09/07 07:00:09;;;;;;;31.23;20.88;;;15.40;99.90;;;;;;6370578;22;20179;-95
2021/09/07 07:02:39;;;;;;;29.17;19.52;;;15.50;99.90;;;;;;6370664;22;20254;-93
2021/09/07 07:05:07;;;;;;;29.25;19.55;;;15.50;99.90;;;;;;6371025;22;20150;-94
2021/09/07 07:07:33;;;;;;;27.90;18.90;;;15.50;99.90;;;;;;6370888;22;20154;-94
2021/09/07 07:10:00;;;;;;;31.48;20.02;;;15.60;99.90;;;;;;6371006;22;20170;-95
2021/09/07 07:12:27;;;;;;;26.55;16.42;;;15.60;99.90;;;;;;6371628;22;20150;-94
2021/09/07 07:14:53;;;;;;;25.83;16.75;;;15.70;99.90;;;;;;6371186;22;20599;-94
2021/09/07 07:17:18;;;;;;;24.88;15.50;;;15.80;99.90;;;;;;6371658;22;20249;-93
2021/09/07 07:19:46;;;;;;;25.48;16.88;;;15.90;99.90;;;;;;6370859;22;20182;-93
2021/09/07 07:22:13;;;;;;;19.88;13.43;;;15.90;99.90;;;;;;6372135;22;20147;-93
2021/09/07 07:25:27;;;;;;;23.00;15.60;;;16.00;99.90;;;;;;6368248;22;20685;-93
2021/09/07 07:27:53;;;;;;;24.67;16.40;;;16.10;99.90;;;;;;6338366;22;20205;-92
2021/09/07 07:30:19;;;;;;;28.05;18.63;;;16.20;99.90;;;;;;6377600;22;20154;-93
2021/09/07 07:32:45;;;;;;;25.75;17.50;;;16.30;99.90;;;;;;6377391;22;20164;-92
2021/09/07 07:35:11;;;;;;;26.58;17.65;;;16.40;99.90;;;;;;6378247;22;20177;-94
2021/09/07 07:37:37;;;;;;;27.08;17.63;;;16.50;99.90;;;;;;6378284;22;20489;-94
2021/09/07 07:40:05;;;;;;;26.58;17.73;;;16.60;99.90;;;;;;6377626;22;20214;-93
2021/09/07 07:42:30;;;;;;;27.92;15.75;;;16.70;99.90;;;;;;6377306;22;20158;-93
2021/09/07 07:44:56;;;;;;;24.98;16.48;;;16.80;99.90;;;;;;6376302;22;20153;-95
2021/09/07 07:47:23;;;;;;;24.33;14.98;;;16.90;99.90;;;;;;6377692;22;20154;-94
2021/09/07 07:49:49;;;;;;;28.63;17.88;;;16.90;99.90;;;;;;6377015;22;20162;-94
2021/09/07 07:52:15;;;;;;;30.63;18.10;;;17.10;99.90;;;;;;6405264;22;20159;-93
2021/09/07 07:54:46;;;;;;;28.20;18.52;;;17.20;99.90;;;;;;6376079;22;20154;-93
2021/09/07 07:57:15;;;;;;;31.95;19.45;;;17.30;99.90;;;;;;6377134;22;20154;-91
2021/09/07 07:59:41;;;;;;;28.83;18.63;;;17.40;99.90;;;;;;6377800;22;20244;-93
2021/09/07 08:02:08;;;;;;;26.50;15.82;;;17.40;99.90;;;;;;6376694;22;20149;-94
2021/09/07 08:04:34;;;;;;;26.00;18.05;;;17.30;99.90;;;;;;6376938;22;20268;-95
2021/09/07 08:07:01;;;;;;;24.10;16.15;;;17.30;99.90;;;;;;6377121;22;20154;-95
2021/09/07 08:09:31;;;;;;;24.45;15.38;;;17.30;99.90;;;;;;6377195;22;20587;-94
2021/09/07 08:11:59;;;;;;;23.05;14.23;;;17.30;99.90;;;;;;6377210;22;20146;-94
2021/09/07 08:14:28;;;;;;;22.45;15.32;;;17.30;99.90;;;;;;6377939;22;20237;-95
2021/09/07 08:16:56;;;;;;;24.10;15.25;;;17.40;99.90;;;;;;6377568;22;20149;-96
2021/09/07 08:19:24;;;;;;;26.58;15.80;;;17.50;99.90;;;;;;6377508;22;20154;-93
2021/09/07 08:21:52;;;;;;;12.85;8.68;;;17.50;99.90;;;;;;6379573;22;20169;-94
2021/09/07 08:24:19;;;;;;;15.15;9.13;;;17.50;99.90;;;;;;6382445;22;20182;-94
2021/09/07 08:26:50;;;;;;;14.05;10.02;;;17.60;99.90;;;;;;6381176;22;20160;-94
2021/09/07 08:29:16;;;;;;;16.80;10.15;;;17.70;99.90;;;;;;6379944;22;20198;-95
2021/09/07 08:31:42;;;;;;;20.17;12.38;;;17.80;99.90;;;;;;6371523;22;20219;-95
2021/09/07 08:34:08;;;;;;;17.13;12.05;;;17.80;99.90;;;;;;6371141;22;20172;-96
2021/09/07 08:36:34;;;;;;;17.08;9.80;;;17.90;99.90;;;;;;6371695;22;20616;-94
2021/09/07 08:39:01;;;;;;;11.25;7.07;;;18.00;99.90;;;;;;6371352;22;20162;-95
2021/09/07 08:41:27;;;;;;;10.32;6.22;;;18.10;99.90;;;;;;6372569;22;20215;-96
2021/09/07 08:43:53;;;;;;;11.23;6.13;;;18.20;99.90;;;;;;6371650;22;20258;-95
2021/09/07 08:46:20;;;;;;;12.15;7.88;;;18.20;99.90;;;;;;6371990;22;20150;-94
2021/09/07 08:48:47;;;;;;;13.27;8.15;;;18.20;99.90;;;;;;6369972;22;20464;-94
2021/09/07 08:51:16;;;;;;;14.35;9.80;;;18.20;99.90;;;;;;6371107;22;20154;-94
2021/09/07 08:53:42;;;;;;;13.02;7.38;;;18.30;99.90;;;;;;6370301;22;20545;-95
2021/09/07 08:56:11;;;;;;;8.88;6.20;;;18.20;99.90;;;;;;6372383;22;20233;-95
2021/09/07 08:58:38;;;;;;;13.52;7.88;;;18.30;99.90;;;;;;6372947;22;20180;-96
2021/09/07 09:01:14;;;;;;;14.90;8.80;;;18.30;99.90;;;;;;6373795;22;20553;-94
2021/09/07 09:03:45;;;;;;;15.55;9.40;;;18.40;99.90;;;;;;6370779;22;20225;-92
2021/09/07 09:06:22;;;;;;;11.80;7.97;;;18.50;99.90;;;;;;6378330;22;20182;-95
2021/09/07 09:08:48;;;;;;;11.10;7.32;;;18.60;99.90;;;;;;6384359;22;20185;-95
2021/09/07 09:11:14;;;;;;;11.45;8.10;;;18.70;99.90;;;;;;6355894;22;20537;-96
2021/09/07 09:13:43;;;;;;;10.57;7.65;;;18.70;99.90;;;;;;6373313;22;20151;-95
2021/09/07 09:16:09;;;;;;;11.73;8.02;;;18.70;99.90;;;;;;6369518;22;20151;-95
2021/09/07 09:18:38;;;;;;;11.23;8.02;;;18.70;99.90;;;;;;6368878;22;20158;-95
2021/09/07 09:21:32;;;;;;;13.20;8.90;;;18.70;99.90;;;;;;6369754;22;20200;-95
2021/09/07 09:24:21;;;;;;;11.02;7.47;;;18.70;99.90;;;;;;6369286;22;20292;-95
2021/09/07 09:26:59;;;;;;;10.98;6.82;;;18.70;99.90;;;;;;6368687;22;20158;-96
2021/09/07 09:29:36;;;;;;;11.20;7.43;;;18.70;99.90;;;;;;6368241;22;20206;-96
2021/09/07 09:32:24;;;;;;;11.40;7.70;;;18.80;99.90;;;;;;6371979;22;20166;-96
2021/09/07 09:35:02;;;;;;;10.98;6.80;;;18.80;99.90;;;;;;6374678;22;20430;-96
2021/09/07 09:37:28;;;;;;;8.63;6.82;;;18.90;99.90;;;;;;6372858;22;20154;-95
2021/09/07 09:39:54;;;;;;;12.10;7.32;;;19.00;99.90;;;;;;6372137;22;20155;-96
2021/09/07 09:42:37;;;;;;;10.00;7.47;;;19.00;99.90;;;;;;6373208;22;20169;-96
2021/09/07 09:45:34;;;;;;;10.50;6.93;;;19.00;99.90;;;;;;6378723;22;20162;-96
2021/09/07 09:48:00;;;;;;;10.60;6.25;;;19.00;99.90;;;;;;6372179;22;20184;-95
2021/09/07 09:50:26;;;;;;;9.85;6.57;;;19.20;99.90;;;;;;6375074;22;20161;-96
2021/09/07 09:52:53;;;;;;;8.85;6.65;;;19.30;99.90;;;;;;6371727;22;20176;-96
2021/09/07 09:55:19;;;;;;;9.32;6.28;;;19.30;99.90;;;;;;6372556;22;20183;-96
2021/09/07 09:57:46;;;;;;;12.18;8.85;;;19.30;99.90;;;;;;6372408;22;20158;-96
2021/09/07 10:00:14;;;;;;;10.77;8.48;;;19.40;99.90;;;;;;6372208;22;20171;-94
2021/09/07 10:02:41;;;;;;;14.30;8.43;;;19.40;99.90;;;;;;6372432;22;20190;-96
2021/09/07 10:05:10;;;;;;;10.20;7.63;;;19.50;99.90;;;;;;6373851;22;20238;-96
2021/09/07 10:07:36;;;;;;;11.30;7.30;;;19.60;99.90;;;;;;6371261;22;20171;-96
2021/09/07 10:10:04;;;;;;;20.83;8.15;;;19.60;99.90;;;;;;6371729;22;20462;-96
2021/09/07 10:12:38;;;;;;;12.80;8.27;;;19.60;99.90;;;;;;6372568;22;20218;-95
2021/09/07 10:15:28;;;;;;;11.82;7.80;;;19.70;99.90;;;;;;6373342;22;20150;-96
2021/09/07 10:18:43;;;;;;;13.63;8.45;;;19.80;99.90;;;;;;6373838;22;20154;-96
2021/09/07 10:23:56;;;;;;;13.38;8.20;;;20.00;99.90;;;;;;6384594;22;20182;-96
2021/09/07 10:26:40;;;;;;;12.38;8.07;;;20.10;99.90;;;;;;6374202;22;20222;-96
2021/09/07 10:29:20;;;;;;;12.32;7.30;;;20.10;99.90;;;;;;6364449;22;20202;-96
2021/09/07 10:31:53;;;;;;;9.85;6.93;;;20.10;99.90;;;;;;6369710;22;20590;-95
2021/09/07 10:34:23;;;;;;;11.57;7.55;;;20.20;99.90;;;;;;6370232;22;20179;-95
2021/09/07 10:37:02;;;;;;;9.30;6.85;;;20.20;99.90;;;;;;6371957;22;20204;-94
2021/09/07 10:39:35;;;;;;;10.30;6.88;;;20.30;99.90;;;;;;6372282;22;20151;-96
2021/09/07 10:42:04;;;;;;;10.25;6.32;;;20.30;99.90;;;;;;6371378;22;20150;-96
2021/09/07 10:44:40;;;;;;;9.95;6.38;;;20.30;99.90;;;;;;6372152;22;20206;-95
2021/09/07 10:47:16;;;;;;;11.38;7.03;;;20.30;99.90;;;;;;6371476;22;20143;-96
2021/09/07 10:50:01;;;;;;;8.18;6.78;;;20.40;99.90;;;;;;6372080;22;20221;-96
2021/09/07 10:52:27;;;;;;;9.77;6.38;;;20.50;99.90;;;;;;6371380;22;20146;-96
2021/09/07 10:54:53;;;;;;;9.52;7.25;;;20.50;99.90;;;;;;6371718;22;20545;-96
2021/09/07 10:57:38;;;;;;;11.55;7.30;;;20.40;99.90;;;;;;6371514;22;20180;-96
2021/09/07 11:00:13;;;;;;;8.15;6.25;;;20.40;99.90;;;;;;6371241;22;20200;-96
2021/09/07 11:03:01;;;;;;;10.90;6.20;;;20.50;99.90;;;;;;6373357;22;20162;-96
2021/09/07 11:05:28;;;;;;;10.88;6.38;;;20.50;99.90;;;;;;6372010;22;20157;-96
2021/09/07 11:08:13;;;;;;;11.73;7.07;;;20.60;99.90;;;;;;6370971;22;20525;-96
2021/09/07 11:10:53;;;;;;;11.07;6.68;;;20.60;99.90;;;;;;6371171;22;20227;-96
2021/09/07 11:13:28;;;;;;;9.40;6.43;;;20.70;99.90;;;;;;6371811;22;20150;-96
2021/09/07 11:16:00;;;;;;;9.00;6.72;;;20.80;99.90;;;;;;6370975;22;20138;-96
2021/09/07 11:18:31;;;;;;;10.07;6.88;;;20.80;99.90;;;;;;6371338;22;20151;-96
2021/09/07 11:21:03;;;;;;;9.13;6.40;;;20.90;99.90;;;;;;6371313;22;20146;-96
2021/09/07 11:23:35;;;;;;;8.52;5.97;;;20.80;99.90;;;;;;6371531;22;20265;-96
2021/09/07 11:26:12;;;;;;;8.07;5.80;;;20.90;99.90;;;;;;6373061;22;20146;-95
2021/09/07 11:28:41;;;;;;;9.27;6.13;;;21.00;99.90;;;;;;6371265;22;20198;-95
2021/09/07 11:31:13;;;;;;;10.73;6.60;;;21.00;99.90;;;;;;6372194;22;20154;-95
2021/09/07 11:33:46;;;;;;;6.63;5.28;;;21.00;99.90;;;;;;6371623;22;20569;-94
2021/09/07 11:36:15;;;;;;;8.13;5.55;;;21.10;99.90;;;;;;6376076;22;20151;-96
2021/09/07 11:38:46;;;;;;;8.60;6.13;;;21.20;99.90;;;;;;6371613;22;20163;-96
2021/09/07 11:41:20;;;;;;;8.10;5.35;;;21.10;99.90;;;;;;6377810;22;20150;-96
2021/09/07 11:46:34;;;;;;;6.80;5.45;;;21.00;99.90;;;;;;6400460;22;20212;-95
2021/09/07 11:49:19;;;;;;;9.65;5.55;;;21.00;99.90;;;;;;6404548;22;20145;-90
2021/09/07 11:51:54;;;;;;;7.38;4.95;;;21.00;99.90;;;;;;6403076;22;20587;-93
2021/09/07 11:54:20;;;;;;;7.20;5.10;;;21.00;99.90;;;;;;6402838;22;20153;-93
2021/09/07 11:56:56;;;;;;;10.60;4.97;;;21.10;99.90;;;;;;6402964;22;20160;-94
2021/09/07 11:59:22;;;;;;;5.80;4.97;;;21.10;99.90;;;;;;6403199;22;20203;-93
2021/09/07 12:02:20;;;;;;;5.38;4.55;;;21.20;99.90;;;;;;6403407;22;20640;-94
2021/09/07 12:04:56;;;;;;;6.35;4.32;;;21.20;99.90;;;;;;6402879;22;20178;-94
2021/09/07 12:07:22;;;;;;;6.38;4.30;;;21.30;99.90;;;;;;6403304;22;20142;-93
2021/09/07 12:09:49;;;;;;;6.55;4.28;;;21.30;99.90;;;;;;6402546;22;20207;-93
2021/09/07 12:12:15;;;;;;;7.35;5.03;;;21.40;99.90;;;;;;6402495;22;20145;-93
2021/09/07 12:14:47;;;;;;;9.20;4.82;;;21.30;99.90;;;;;;6403488;22;20153;-94
2021/09/07 12:17:16;;;;;;;5.65;4.63;;;21.30;99.90;;;;;;6402541;22;20194;-95
2021/09/07 12:19:50;;;;;;;6.70;4.93;;;21.30;99.70;;;;;;6402499;22;20174;-94
2021/09/07 12:22:37;;;;;;;8.23;4.65;;;21.40;99.90;;;;;;6402517;22;20218;-95
2021/09/07 12:25:13;;;;;;;5.35;4.55;;;21.40;99.90;;;;;;6402237;22;20189;-92
2021/09/07 12:27:39;;;;;;;7.80;4.72;;;21.50;99.80;;;;;;6401944;22;20146;-92
2021/09/07 12:30:32;;;;;;;7.75;4.50;;;21.50;99.90;;;;;;6402410;22;20166;-94
2021/09/07 12:33:00;;;;;;;7.95;4.57;;;21.50;99.90;;;;;;6402533;22;20213;-94
2021/09/07 12:35:43;;;;;;;5.75;4.15;;;21.50;99.90;;;;;;6402557;22;20153;-94
2021/09/07 12:38:15;;;;;;;5.40;4.35;;;21.40;99.70;;;;;;6402302;22;20648;-92
2021/09/07 12:41:15;;;;;;;5.65;4.25;;;21.50;99.90;;;;;;6402290;22;20173;-95
2021/09/07 12:43:46;;;;;;;5.13;4.10;;;21.50;99.80;;;;;;6401722;22;20185;-91
2021/09/07 12:46:16;;;;;;;6.15;4.53;;;21.50;99.90;;;;;;6401985;22;20194;-93
2021/09/07 12:48:45;;;;;;;6.95;4.55;;;21.50;99.90;;;;;;6402238;22;20146;-92